Time;durP1;ratioP1;P1;durP2;ratioP2;P2;SDS_P1;SDS_P2;PMS_P1;PMS_P2;Temp;Humidity;BMP_temperature;BMP_pressure;BME280_temperature;BME280_humidity;BME280_pressure;Samples;Min_cycle;Max_cycle;Signal;HPM_P1;HPM_P2
2022/08/18 00:00:05;;;;;;;6.70;6.20;;;28.10;68.10;;;;;;5064932;28;20935;-72
2022/08/18 00:02:41;;;;;;;6.30;5.90;;;27.90;66.10;;;;;;5047562;28;20521;-73
2022/08/18 00:05:27;;;;;;;6.10;5.70;;;28.00;65.70;;;;;;5051093;28;20433;-72
2022/08/18 00:07:57;;;;;;;8.43;7.60;;;28.10;65.40;;;;;;5052039;28;20452;-72
2022/08/18 00:10:26;;;;;;;8.40;7.77;;;28.30;66.40;;;;;;5059499;28;20454;-73
2022/08/18 00:12:54;;;;;;;6.80;6.30;;;28.30;66.20;;;;;;5055895;28;20545;-72
2022/08/18 00:15:28;;;;;;;6.43;5.93;;;28.40;65.10;;;;;;5054275;28;20506;-72
2022/08/18 00:17:58;;;;;;;6.77;6.17;;;28.50;65.00;;;;;;5043983;28;20478;-72
2022/08/18 00:20:26;;;;;;;7.07;6.60;;;28.50;64.70;;;;;;5046588;28;20990;-73
2022/08/18 00:22:55;;;;;;;9.33;8.53;;;28.50;65.40;;;;;;5046826;28;20480;-72
2022/08/18 00:25:24;;;;;;;9.13;6.77;;;28.50;65.90;;;;;;5055984;28;20444;-72
2022/08/18 00:27:52;;;;;;;8.50;7.80;;;28.40;64.90;;;;;;5054634;28;20500;-72
2022/08/18 00:30:21;;;;;;;10.53;9.70;;;28.40;66.10;;;;;;5036070;28;20524;-72
2022/08/18 00:32:52;;;;;;;7.47;6.97;;;28.10;67.60;;;;;;5045885;28;20502;-72
2022/08/18 00:35:25;;;;;;;6.60;6.20;;;27.90;67.90;;;;;;5039832;28;20505;-72
2022/08/18 00:38:00;;;;;;;6.27;5.87;;;27.60;68.20;;;;;;5045038;28;20454;-73
2022/08/18 00:40:37;;;;;;;7.17;6.53;;;27.60;67.10;;;;;;5054299;28;20547;-72
2022/08/18 00:43:07;;;;;;;9.30;6.53;;;27.70;66.80;;;;;;5042050;28;20496;-73
2022/08/18 00:45:38;;;;;;;6.27;5.77;;;27.80;66.30;;;;;;5051038;28;20842;-72
2022/08/18 00:48:09;;;;;;;6.73;5.80;;;28.00;65.90;;;;;;5034736;28;20963;-73
2022/08/18 00:50:45;;;;;;;6.87;6.27;;;28.20;65.60;;;;;;5054450;28;20928;-72
2022/08/18 00:53:19;;;;;;;6.20;5.73;;;28.30;65.30;;;;;;5036999;28;20448;-72
2022/08/18 00:55:49;;;;;;;6.00;5.50;;;28.40;64.80;;;;;;5054568;28;20496;-72
2022/08/18 00:58:28;;;;;;;6.20;5.70;;;28.50;64.70;;;;;;5049868;28;20470;-72
2022/08/18 01:00:56;;;;;;;6.40;5.90;;;28.50;64.60;;;;;;5055513;28;20450;-72
2022/08/18 01:03:25;;;;;;;6.30;5.87;;;28.50;64.40;;;;;;5045624;28;20497;-71
2022/08/18 01:05:59;;;;;;;9.87;9.13;;;28.60;64.40;;;;;;5032796;28;20474;-72
2022/08/18 01:08:28;;;;;;;8.17;7.50;;;28.70;65.30;;;;;;5051196;28;20490;-72
2022/08/18 01:10:57;;;;;;;8.60;8.00;;;28.70;65.20;;;;;;5052351;28;20448;-72
2022/08/18 01:13:28;;;;;;;6.70;6.20;;;28.80;65.10;;;;;;5052196;28;20487;-72
2022/08/18 01:15:57;;;;;;;6.00;5.47;;;28.70;64.20;;;;;;5045668;28;20538;-73
2022/08/18 01:24:16;;;;;;;5.67;5.33;;;28.60;64.40;;;;;;4995159;28;20474;-73
2022/08/18 01:26:49;;;;;;;6.50;6.00;;;28.60;64.40;;;;;;5037739;28;20847;-72
2022/08/18 01:29:19;;;;;;;6.00;5.60;;;28.70;64.40;;;;;;5040974;28;20485;-72
2022/08/18 01:31:53;;;;;;;6.20;5.70;;;28.90;64.10;;;;;;5047010;28;20459;-72
2022/08/18 01:34:24;;;;;;;6.50;6.00;;;28.90;64.00;;;;;;5053480;28;20499;-72
2022/08/18 01:36:54;;;;;;;7.50;7.00;;;28.90;64.00;;;;;;5053709;28;20457;-72
2022/08/18 01:39:24;;;;;;;6.90;6.40;;;28.90;63.90;;;;;;5062713;28;20452;-72
2022/08/18 01:42:15;;;;;;;6.77;6.17;;;28.90;63.70;;;;;;5062036;28;20943;-72
2022/08/18 01:44:45;;;;;;;6.67;6.17;;;28.90;63.80;;;;;;5071759;28;20421;-72
2022/08/18 01:47:15;;;;;;;6.57;6.00;;;28.90;64.10;;;;;;5072282;28;20442;-73
2022/08/18 01:49:44;;;;;;;6.57;6.17;;;29.00;64.40;;;;;;5059686;28;20481;-73
2022/08/18 01:52:19;;;;;;;10.50;9.70;;;29.10;63.90;;;;;;5048494;28;20894;-72
2022/08/18 01:54:50;;;;;;;6.63;6.13;;;28.90;64.70;;;;;;5039724;28;20465;-72
2022/08/18 01:57:20;;;;;;;6.20;5.70;;;28.90;64.40;;;;;;5051887;28;20432;-72
2022/08/18 01:59:48;;;;;;;6.00;5.60;;;28.70;64.10;;;;;;5055746;28;21270;-72
2022/08/18 02:02:23;;;;;;;7.60;6.97;;;28.70;64.20;;;;;;5072200;28;20477;-73
2022/08/18 02:04:53;;;;;;;10.90;9.90;;;28.70;64.40;;;;;;5056621;28;20854;-72
2022/08/18 02:07:21;;;;;;;13.40;12.33;;;28.60;65.60;;;;;;5031885;28;20848;-72
2022/08/18 02:10:00;;;;;;;11.17;10.37;;;28.30;66.30;;;;;;5032292;28;20442;-72
2022/08/18 02:12:29;;;;;;;10.60;9.70;;;28.10;67.00;;;;;;5032098;28;20437;-72
2022/08/18 02:14:57;;;;;;;6.90;6.40;;;28.10;66.60;;;;;;5046266;28;20470;-72
2022/08/18 02:17:26;;;;;;;10.93;10.23;;;28.10;66.10;;;;;;5056243;28;20464;-72
2022/08/18 02:19:56;;;;;;;11.17;10.37;;;28.10;66.30;;;;;;5031316;28;20538;-72
2022/08/18 02:22:24;;;;;;;13.00;10.33;;;28.20;66.20;;;;;;5031634;28;20456;-71
2022/08/18 02:24:52;;;;;;;9.00;8.20;;;28.30;66.10;;;;;;5032406;28;20451;-72
2022/08/18 02:27:22;;;;;;;7.93;7.33;;;28.30;65.70;;;;;;5032084;28;20553;-72
2022/08/18 02:29:50;;;;;;;14.17;13.17;;;28.30;65.60;;;;;;5033404;28;20548;-72
2022/08/18 02:32:18;;;;;;;10.00;9.20;;;28.10;66.20;;;;;;5047999;28;20450;-71
2022/08/18 02:34:46;;;;;;;13.27;12.07;;;28.00;66.70;;;;;;5044863;28;20478;-72
2022/08/18 02:37:14;;;;;;;13.60;12.50;;;27.80;67.20;;;;;;5064546;28;20492;-72
2022/08/18 02:39:43;;;;;;;8.83;8.13;;;27.20;68.50;;;;;;5058386;28;20466;-72
2022/08/18 02:42:13;;;;;;;11.50;10.60;;;27.00;68.90;;;;;;5055306;28;20447;-72
2022/08/18 02:44:43;;;;;;;6.97;6.47;;;26.90;69.30;;;;;;5053652;28;20465;-72
2022/08/18 02:47:11;;;;;;;7.17;6.53;;;26.90;68.70;;;;;;5051328;28;20450;-71
2022/08/18 02:49:39;;;;;;;7.80;5.97;;;27.10;68.20;;;;;;5059271;28;20546;-72
2022/08/18 02:52:08;;;;;;;7.20;6.70;;;27.30;67.70;;;;;;5059934;28;20497;-71
2022/08/18 02:54:36;;;;;;;7.60;7.10;;;27.50;67.10;;;;;;5054722;28;20523;-72
2022/08/18 02:57:09;;;;;;;6.73;6.27;;;27.80;66.50;;;;;;5055203;28;20455;-71
2022/08/18 02:59:39;;;;;;;7.90;7.20;;;27.90;66.60;;;;;;5055290;28;20461;-72
2022/08/18 03:02:10;;;;;;;9.07;8.30;;;28.00;66.20;;;;;;5052767;28;20559;-71
2022/08/18 03:04:39;;;;;;;9.63;8.83;;;28.00;66.20;;;;;;5067711;28;20531;-72
2022/08/18 03:07:08;;;;;;;7.23;6.70;;;27.90;66.20;;;;;;5074810;28;20442;-72
2022/08/18 03:09:36;;;;;;;9.57;8.77;;;27.90;66.20;;;;;;5052210;28;21016;-72
2022/08/18 03:12:07;;;;;;;5.97;5.57;;;27.90;66.20;;;;;;5050045;28;20539;-72
2022/08/18 03:14:37;;;;;;;5.93;5.53;;;27.90;66.20;;;;;;5064143;28;20542;-71
2022/08/18 03:17:08;;;;;;;7.00;6.50;;;27.90;65.90;;;;;;5034429;28;20508;-72
2022/08/18 03:19:38;;;;;;;5.73;5.33;;;28.00;65.90;;;;;;5036319;28;20550;-72
2022/08/18 03:22:09;;;;;;;6.73;6.27;;;28.10;65.60;;;;;;5038759;28;20477;-72
2022/08/18 03:24:55;;;;;;;13.20;12.00;;;28.20;65.70;;;;;;5049098;28;20488;-72
2022/08/18 03:27:24;;;;;;;12.30;11.20;;;28.20;65.70;;;;;;5049307;28;20435;-72
2022/08/18 03:29:52;;;;;;;13.33;12.20;;;27.60;67.30;;;;;;5054077;28;20451;-72
2022/08/18 03:32:21;;;;;;;8.87;8.20;;;27.00;68.70;;;;;;5054599;28;20439;-72
2022/08/18 03:34:50;;;;;;;11.70;10.63;;;26.90;68.80;;;;;;5039611;28;20914;-72
2022/08/18 03:37:18;;;;;;;12.10;11.00;;;26.70;69.40;;;;;;5045559;28;20442;-72
2022/08/18 03:39:46;;;;;;;11.30;10.40;;;26.50;69.90;;;;;;5054179;28;20433;-71
2022/08/18 03:42:15;;;;;;;17.57;15.97;;;26.20;70.60;;;;;;5050291;28;20487;-71
2022/08/18 03:44:43;;;;;;;16.73;15.23;;;25.10;73.30;;;;;;5072614;28;20498;-72
2022/08/18 03:47:11;;;;;;;14.70;13.30;;;24.60;74.50;;;;;;5053103;28;20543;-71
2022/08/18 03:49:41;;;;;;;12.17;11.13;;;24.50;75.20;;;;;;5042512;28;20966;-71
2022/08/18 03:52:10;;;;;;;14.07;12.57;;;24.50;74.90;;;;;;5038894;28;20519;-72
2022/08/18 03:54:39;;;;;;;12.03;11.00;;;24.40;75.30;;;;;;5042006;28;20453;-72
2022/08/18 03:57:09;;;;;;;9.33;8.43;;;24.40;75.20;;;;;;5034353;28;20517;-71
2022/08/18 03:59:40;;;;;;;12.50;11.40;;;24.40;75.10;;;;;;5048285;28;20467;-71
2022/08/18 04:02:08;;;;;;;11.70;10.60;;;24.30;75.00;;;;;;5044763;28;20531;-72
2022/08/18 04:04:37;;;;;;;11.73;10.73;;;24.40;75.30;;;;;;5042255;28;20505;-72
2022/08/18 04:07:15;;;;;;;12.93;11.70;;;24.60;74.60;;;;;;5050425;28;20443;-72
2022/08/18 04:09:44;;;;;;;8.10;7.40;;;24.70;74.10;;;;;;5048434;28;20445;-73
2022/08/18 04:12:15;;;;;;;6.97;6.37;;;24.80;73.80;;;;;;5047906;28;20912;-72
2022/08/18 04:14:47;;;;;;;7.10;6.50;;;25.10;73.20;;;;;;5058941;28;20856;-72
2022/08/18 04:17:23;;;;;;;7.17;6.47;;;25.40;72.30;;;;;;5039828;28;20475;-71
2022/08/18 04:19:51;;;;;;;6.70;6.20;;;25.70;71.40;;;;;;5047842;28;20452;-72
2022/08/18 04:22:22;;;;;;;11.50;10.50;;;25.90;70.60;;;;;;5053699;28;20483;-72
2022/08/18 04:24:50;;;;;;;6.90;6.40;;;26.10;70.00;;;;;;5044131;28;20471;-72
2022/08/18 04:27:20;;;;;;;8.90;8.10;;;26.30;69.70;;;;;;5054414;28;20479;-73
2022/08/18 04:29:48;;;;;;;6.60;6.07;;;26.40;69.20;;;;;;5064065;28;20452;-73
2022/08/18 04:32:18;;;;;;;6.30;5.80;;;26.60;68.80;;;;;;5058661;28;20550;-72
2022/08/18 04:34:46;;;;;;;6.60;6.10;;;26.80;68.30;;;;;;5064963;28;20450;-72
2022/08/18 04:37:15;;;;;;;6.00;5.60;;;27.00;67.80;;;;;;5073545;28;20440;-72
2022/08/18 04:39:45;;;;;;;9.53;8.73;;;27.10;67.50;;;;;;5052202;28;20970;-72
2022/08/18 04:42:13;;;;;;;9.10;7.93;;;27.00;67.40;;;;;;5046034;28;20511;-71
2022/08/18 04:44:42;;;;;;;11.17;10.17;;;26.90;67.70;;;;;;5047702;28;20602;-72
2022/08/18 04:47:11;;;;;;;5.90;5.50;;;26.90;67.50;;;;;;5063373;28;20597;-72
2022/08/18 04:49:40;;;;;;;6.20;5.70;;;26.90;67.80;;;;;;5050687;28;20499;-73
2022/08/18 04:55:10;;;;;;;12.53;11.13;;;27.20;67.10;;;;;;5045740;28;20453;-72
2022/08/18 04:57:40;;;;;;;8.90;8.20;;;26.90;67.60;;;;;;5058600;28;20498;-72
2022/08/18 05:00:11;;;;;;;9.57;8.77;;;26.60;68.30;;;;;;5068916;28;20433;-72
2022/08/18 05:02:40;;;;;;;11.83;10.07;;;26.60;68.70;;;;;;5056772;28;20476;-72
2022/08/18 05:05:08;;;;;;;7.70;6.93;;;26.60;68.70;;;;;;5063282;28;20565;-72
2022/08/18 05:07:37;;;;;;;6.53;5.97;;;26.40;69.10;;;;;;5069908;28;20448;-71
2022/08/18 05:10:05;;;;;;;6.30;5.80;;;26.60;68.90;;;;;;5055941;28;20446;-73
2022/08/18 05:12:35;;;;;;;5.13;4.63;;;26.70;68.20;;;;;;5048343;28;20531;-72
2022/08/18 05:15:05;;;;;;;6.47;5.63;;;26.90;67.80;;;;;;5051479;28;20533;-72
2022/08/18 05:17:38;;;;;;;10.70;9.70;;;27.00;67.90;;;;;;5049765;28;20548;-72
2022/08/18 05:20:08;;;;;;;5.73;5.33;;;27.20;67.50;;;;;;5047254;28;20485;-72
2022/08/18 05:22:40;;;;;;;8.03;7.43;;;27.20;67.10;;;;;;5043920;28;20469;-72
2022/08/18 05:25:12;;;;;;;6.60;6.07;;;27.30;67.30;;;;;;5053972;28;20510;-73
2022/08/18 05:27:43;;;;;;;13.27;12.00;;;27.30;67.20;;;;;;5064707;28;20495;-71
2022/08/18 05:30:14;;;;;;;14.00;12.67;;;27.20;68.10;;;;;;5072365;28;20968;-71
2022/08/18 05:32:45;;;;;;;13.17;11.97;;;26.80;68.80;;;;;;5065638;28;20512;-72
2022/08/18 05:35:23;;;;;;;14.50;13.20;;;26.10;70.40;;;;;;5046466;28;20444;-72
2022/08/18 05:38:16;;;;;;;8.73;8.07;;;26.00;70.90;;;;;;5046071;28;20862;-72
2022/08/18 05:40:46;;;;;;;6.63;6.13;;;26.00;70.60;;;;;;5041227;28;20561;-74
2022/08/18 05:43:17;;;;;;;12.60;11.40;;;26.10;70.20;;;;;;5044945;28;20468;-73
2022/08/18 05:45:48;;;;;;;10.90;9.90;;;26.30;70.20;;;;;;5047447;28;20473;-72
2022/08/18 05:48:16;;;;;;;11.33;10.33;;;26.40;69.70;;;;;;5041714;28;20449;-72
2022/08/18 05:50:44;;;;;;;10.50;9.50;;;26.20;69.80;;;;;;5043460;28;20989;-73
2022/08/18 05:53:17;;;;;;;13.00;11.70;;;26.20;69.80;;;;;;5039175;28;20462;-73
2022/08/18 05:58:47;;;;;;;14.67;13.30;;;25.80;70.40;;;;;;5043208;28;20509;-72
2022/08/18 06:01:18;;;;;;;15.20;13.70;;;25.60;71.70;;;;;;5040573;28;20445;-71
2022/08/18 06:03:51;;;;;;;14.50;13.17;;;25.40;72.20;;;;;;5042863;28;20491;-73
2022/08/18 06:06:21;;;;;;;15.57;14.20;;;25.30;72.70;;;;;;5038723;28;20560;-71
2022/08/18 06:08:57;;;;;;;18.10;14.93;;;25.10;73.10;;;;;;5046846;28;20948;-71
2022/08/18 06:11:25;;;;;;;16.40;14.70;;;25.10;73.20;;;;;;5052370;28;20477;-71
2022/08/18 06:13:55;;;;;;;17.97;15.90;;;25.00;73.20;;;;;;5053235;28;20444;-72
2022/08/18 06:16:48;;;;;;;15.23;13.80;;;25.00;73.50;;;;;;5050494;28;20477;-72
2022/08/18 06:19:36;;;;;;;17.10;15.33;;;25.00;73.60;;;;;;5047165;28;20460;-72
2022/08/18 06:22:17;;;;;;;16.50;14.90;;;24.80;74.10;;;;;;5051511;28;20502;-72
2022/08/18 06:24:54;;;;;;;15.30;13.70;;;24.40;75.00;;;;;;5049093;28;20854;-72
2022/08/18 06:27:31;;;;;;;14.60;13.17;;;24.40;75.20;;;;;;5045811;28;20502;-80
2022/08/18 06:30:10;;;;;;;15.70;14.07;;;24.50;74.90;;;;;;5037148;28;20523;-74
2022/08/18 06:32:56;;;;;;;11.93;10.63;;;24.60;75.00;;;;;;5045833;28;20494;-76
2022/08/18 06:35:34;;;;;;;16.93;15.33;;;24.80;74.30;;;;;;5047800;28;20449;-75
2022/08/18 06:41:17;;;;;;;13.80;12.50;;;25.20;73.10;;;;;;5037307;28;20459;-75
2022/08/18 06:44:09;;;;;;;16.10;14.60;;;25.50;72.20;;;;;;5050633;28;21175;-76
2022/08/18 06:46:44;;;;;;;11.10;9.47;;;25.70;71.70;;;;;;5062484;28;20502;-74
2022/08/18 06:49:18;;;;;;;9.23;8.43;;;25.70;71.40;;;;;;5056780;28;20548;-78
2022/08/18 06:51:46;;;;;;;10.33;9.40;;;25.90;70.90;;;;;;5049983;28;20470;-74
2022/08/18 06:54:29;;;;;;;8.43;7.80;;;26.10;70.40;;;;;;5053182;28;20453;-76
2022/08/18 06:56:59;;;;;;;9.90;8.90;;;26.40;69.90;;;;;;5059505;28;20979;-75
2022/08/18 06:59:30;;;;;;;10.03;9.03;;;26.50;69.50;;;;;;5040873;28;20498;-75
2022/08/18 07:02:10;;;;;;;9.37;8.47;;;26.70;69.30;;;;;;5040828;28;20462;-76
2022/08/18 07:04:41;;;;;;;9.37;8.67;;;26.80;68.90;;;;;;5046752;28;20549;-75
2022/08/18 07:07:20;;;;;;;9.57;8.80;;;27.00;69.00;;;;;;5054606;28;20494;-76
2022/08/18 07:09:48;;;;;;;9.80;8.90;;;27.10;68.60;;;;;;5061295;28;20468;-75
2022/08/18 07:12:23;;;;;;;13.20;12.00;;;27.20;68.60;;;;;;5069434;28;20695;-75
2022/08/18 07:14:59;;;;;;;9.40;8.60;;;27.30;69.10;;;;;;5051406;28;20438;-75
2022/08/18 07:17:31;;;;;;;9.77;8.97;;;27.20;68.80;;;;;;5060635;28;20513;-74
2022/08/18 07:20:20;;;;;;;10.50;9.60;;;27.30;68.80;;;;;;5058464;28;20441;-74
2022/08/18 07:22:54;;;;;;;12.00;10.90;;;27.40;69.00;;;;;;5066250;28;21107;-76
2022/08/18 07:25:27;;;;;;;10.33;9.43;;;27.50;68.80;;;;;;5054257;28;20568;-75
2022/08/18 07:27:56;;;;;;;12.30;11.20;;;27.50;68.80;;;;;;5066948;28;20812;-76
2022/08/18 07:30:34;;;;;;;11.60;10.50;;;27.50;68.80;;;;;;5061216;28;20541;-76
2022/08/18 07:33:12;;;;;;;12.43;11.33;;;27.40;68.80;;;;;;5066773;28;20940;-75
2022/08/18 07:35:49;;;;;;;10.77;9.87;;;27.50;68.90;;;;;;5058171;28;20472;-74
2022/08/18 07:38:23;;;;;;;15.17;13.87;;;27.40;68.70;;;;;;5058165;28;20471;-74
2022/08/18 07:41:19;;;;;;;15.93;13.57;;;27.30;68.70;;;;;;5055789;28;20450;-75
2022/08/18 07:43:59;;;;;;;14.27;12.87;;;27.10;69.20;;;;;;5038815;28;20509;-75
2022/08/18 07:46:35;;;;;;;14.37;13.07;;;26.90;70.10;;;;;;5040074;28;20510;-75
2022/08/18 07:49:05;;;;;;;9.47;8.73;;;26.70;70.70;;;;;;5061694;28;20514;-75
2022/08/18 07:51:46;;;;;;;11.43;10.33;;;26.70;70.30;;;;;;5040742;28;20449;-74
2022/08/18 07:54:34;;;;;;;14.00;12.80;;;26.70;70.90;;;;;;5052646;28;20805;-75
2022/08/18 07:57:26;;;;;;;17.07;15.77;;;26.80;70.70;;;;;;5038442;28;21016;-75
2022/08/18 08:00:01;;;;;;;15.17;13.67;;;26.70;70.40;;;;;;5044599;28;20542;-74
2022/08/18 08:02:50;;;;;;;14.80;13.50;;;26.60;70.90;;;;;;5060417;28;20490;-75
2022/08/18 08:05:37;;;;;;;16.47;14.97;;;26.30;71.50;;;;;;5054400;28;21001;-78
2022/08/18 08:08:19;;;;;;;17.20;15.80;;;26.10;72.30;;;;;;5053141;28;20456;-77
2022/08/18 08:11:07;;;;;;;16.63;14.83;;;26.00;72.80;;;;;;5055454;28;20833;-75
2022/08/18 08:13:50;;;;;;;15.13;13.73;;;26.00;72.60;;;;;;5060351;28;20510;-73
2022/08/18 08:16:36;;;;;;;10.77;9.97;;;26.10;72.50;;;;;;5042359;28;20480;-74
2022/08/18 08:19:28;;;;;;;11.53;10.47;;;26.20;72.20;;;;;;5042524;28;20545;-72
2022/08/18 08:22:23;;;;;;;9.67;8.77;;;26.30;71.60;;;;;;5048739;28;20533;-70
2022/08/18 08:25:01;;;;;;;15.07;13.80;;;26.50;71.00;;;;;;5039263;28;20453;-74
2022/08/18 08:27:38;;;;;;;11.83;10.83;;;26.60;70.80;;;;;;5058889;28;20568;-74
2022/08/18 08:30:10;;;;;;;14.30;13.00;;;26.70;70.60;;;;;;5047860;28;20449;-72
2022/08/18 08:32:51;;;;;;;13.93;12.73;;;26.80;71.00;;;;;;5053499;28;20453;-73
2022/08/18 08:35:26;;;;;;;12.27;11.13;;;26.80;71.10;;;;;;5053938;28;20453;-72
2022/08/18 08:38:23;;;;;;;14.70;13.50;;;26.80;71.10;;;;;;5051618;28;20537;-73
2022/08/18 08:41:13;;;;;;;11.23;10.20;;;26.70;71.30;;;;;;5058551;28;20437;-73
2022/08/18 08:43:45;;;;;;;13.77;12.60;;;26.70;71.30;;;;;;5041636;28;20446;-73
2022/08/18 08:46:19;;;;;;;14.57;13.37;;;26.70;72.00;;;;;;5039337;28;20466;-72
2022/08/18 08:48:52;;;;;;;13.33;12.23;;;26.50;72.10;;;;;;5045445;28;21030;-72
2022/08/18 08:51:36;;;;;;;10.83;9.73;;;26.40;71.70;;;;;;5042902;28;20458;-74
2022/08/18 08:54:10;;;;;;;9.17;8.43;;;26.50;72.00;;;;;;5051689;28;20547;-75
2022/08/18 08:56:44;;;;;;;9.20;8.40;;;26.50;71.30;;;;;;5054168;28;20502;-74
2022/08/18 08:59:15;;;;;;;12.43;11.33;;;26.60;70.90;;;;;;5046848;28;20495;-74
2022/08/18 09:01:53;;;;;;;10.87;9.97;;;26.60;71.60;;;;;;5046509;28;20515;-76
2022/08/18 09:04:33;;;;;;;8.07;7.47;;;26.80;71.00;;;;;;5003450;28;20449;-75
2022/08/18 09:07:21;;;;;;;7.77;7.17;;;27.00;71.10;;;;;;4998058;28;20519;-72
2022/08/18 09:10:19;;;;;;;8.40;7.70;;;27.10;69.20;;;;;;5009434;28;20497;-75
2022/08/18 09:13:04;;;;;;;8.17;7.57;;;27.30;70.00;;;;;;5007946;28;20461;-74
2022/08/18 09:15:56;;;;;;;9.00;8.23;;;27.40;69.50;;;;;;5014077;28;20548;-74
2022/08/18 09:18:43;;;;;;;8.20;7.67;;;27.50;69.00;;;;;;5011496;28;20476;-75
2022/08/18 09:21:36;;;;;;;7.30;6.77;;;27.40;68.60;;;;;;5010734;28;20487;-75
2022/08/18 09:24:11;;;;;;;7.90;7.40;;;27.40;67.90;;;;;;5006486;28;20495;-75
2022/08/18 09:26:47;;;;;;;8.10;7.50;;;27.40;67.20;;;;;;5009131;28;20501;-74
2022/08/18 09:29:22;;;;;;;8.40;7.80;;;27.30;67.70;;;;;;5007788;28;20968;-75
2022/08/18 09:32:28;;;;;;;6.40;6.00;;;27.30;68.80;;;;;;5047785;28;20465;-74
2022/08/18 09:35:10;;;;;;;8.00;7.40;;;27.40;67.60;;;;;;5019629;28;20569;-74
2022/08/18 09:41:30;;;;;;;6.97;6.47;;;27.50;66.80;;;;;;5014802;28;20915;-75
2022/08/18 09:43:54;;;;;;;8.20;7.50;;;27.40;66.90;;;;;;5010260;28;20450;-75
2022/08/18 09:46:51;;;;;;;11.63;7.47;;;27.60;66.60;;;;;;5014266;28;20560;-74
2022/08/18 09:49:45;;;;;;;6.47;5.97;;;27.60;66.80;;;;;;5020056;28;20452;-74
2022/08/18 09:52:56;;;;;;;7.20;6.70;;;27.60;67.10;;;;;;5010812;28;20790;-73
2022/08/18 09:55:55;;;;;;;8.67;7.83;;;27.70;66.80;;;;;;5014546;28;20818;-74
2022/08/18 09:59:00;;;;;;;7.27;6.70;;;27.70;65.90;;;;;;5007552;28;20562;-73
2022/08/18 10:01:39;;;;;;;7.20;6.70;;;27.80;65.70;;;;;;5008232;28;20501;-75
2022/08/18 10:04:32;;;;;;;7.80;7.20;;;27.80;66.10;;;;;;5035264;28;20560;-79
2022/08/18 10:07:20;;;;;;;7.87;7.23;;;28.00;67.30;;;;;;5032769;28;21388;-79
2022/08/18 10:09:58;;;;;;;7.03;6.53;;;28.10;66.30;;;;;;5044499;28;20899;-78
2022/08/18 10:13:07;;;;;;;8.63;7.93;;;28.20;65.60;;;;;;5041051;28;20481;-71
2022/08/18 10:15:48;;;;;;;7.20;6.70;;;28.20;65.90;;;;;;5040769;28;22278;-74
2022/08/18 10:18:48;;;;;;;6.30;5.90;;;28.30;66.10;;;;;;5045400;28;20456;-71
2022/08/18 10:21:27;;;;;;;7.70;7.13;;;28.30;65.10;;;;;;5044080;28;20792;-72
2022/08/18 10:24:13;;;;;;;7.17;6.67;;;28.30;66.00;;;;;;5047028;28;20528;-71
2022/08/18 10:27:03;;;;;;;6.40;5.90;;;28.30;65.50;;;;;;5045958;28;20503;-73
2022/08/18 10:29:49;;;;;;;7.33;6.83;;;28.30;65.10;;;;;;5041401;28;20513;-73
2022/08/18 10:32:38;;;;;;;6.77;6.30;;;28.30;65.70;;;;;;5041384;28;20495;-71
2022/08/18 10:35:52;;;;;;;7.00;6.50;;;28.30;65.00;;;;;;5043069;28;20484;-73
2022/08/18 10:38:39;;;;;;;7.70;7.10;;;28.30;66.00;;;;;;5045657;28;20528;-71
2022/08/18 10:41:21;;;;;;;7.97;7.20;;;28.30;65.50;;;;;;5045882;28;20944;-71
2022/08/18 10:43:53;;;;;;;8.70;8.00;;;28.40;65.50;;;;;;5045865;28;20469;-73
2022/08/18 10:46:27;;;;;;;6.87;6.37;;;28.30;64.90;;;;;;5047482;28;21425;-72
2022/08/18 10:49:25;;;;;;;7.40;6.80;;;28.20;64.80;;;;;;5041980;28;20457;-71
2022/08/18 10:52:19;;;;;;;7.33;6.80;;;28.10;65.20;;;;;;5046716;28;20969;-71
2022/08/18 10:55:08;;;;;;;6.90;6.40;;;28.10;65.30;;;;;;5047357;28;20461;-72
2022/08/18 10:58:14;;;;;;;6.73;6.27;;;28.20;65.20;;;;;;5046115;28;20512;-71
2022/08/18 11:00:59;;;;;;;8.50;7.80;;;28.30;64.80;;;;;;5036280;28;20487;-71
2022/08/18 11:03:45;;;;;;;6.93;6.43;;;28.30;64.40;;;;;;5044055;28;20543;-72
2022/08/18 11:06:25;;;;;;;6.77;6.27;;;28.40;64.00;;;;;;5049126;28;20452;-72
2022/08/18 11:09:00;;;;;;;6.70;6.13;;;28.30;64.10;;;;;;5048141;28;20483;-72
2022/08/18 11:11:34;;;;;;;6.80;6.20;;;28.40;64.10;;;;;;5051597;28;20914;-71
2022/08/18 11:14:31;;;;;;;7.80;7.20;;;28.40;63.90;;;;;;5054319;28;20804;-73
2022/08/18 11:17:08;;;;;;;9.33;8.63;;;28.40;63.70;;;;;;5041949;28;20471;-71
2022/08/18 11:19:39;;;;;;;7.50;7.00;;;28.40;63.30;;;;;;5048767;28;20476;-71
2022/08/18 11:22:23;;;;;;;8.80;8.10;;;28.40;63.50;;;;;;5044700;28;20440;-71
2022/08/18 11:25:22;;;;;;;8.00;7.30;;;28.30;63.80;;;;;;5056062;28;20460;-72
2022/08/18 11:27:50;;;;;;;7.63;7.03;;;28.40;63.70;;;;;;5043938;28;20467;-71
2022/08/18 11:30:21;;;;;;;8.40;7.70;;;28.50;63.70;;;;;;5047011;28;20495;-71
2022/08/18 11:32:59;;;;;;;9.80;7.70;;;28.60;63.90;;;;;;5047711;28;20479;-72
2022/08/18 11:35:50;;;;;;;8.37;7.67;;;28.80;63.20;;;;;;5044337;28;20486;-72
2022/08/18 11:38:20;;;;;;;9.60;8.90;;;28.90;62.80;;;;;;5047709;28;20490;-73
2022/08/18 11:40:53;;;;;;;8.30;7.70;;;28.90;63.30;;;;;;5045575;28;20553;-72
2022/08/18 11:43:41;;;;;;;8.17;7.40;;;29.00;63.00;;;;;;5034886;28;20490;-71
2022/08/18 11:46:22;;;;;;;9.03;8.30;;;28.90;62.70;;;;;;5042147;28;20498;-75
2022/08/18 11:49:18;;;;;;;7.37;6.77;;;29.00;63.20;;;;;;5045221;28;20484;-71
2022/08/18 11:51:56;;;;;;;6.87;6.37;;;29.10;62.50;;;;;;5044520;28;20466;-73
2022/08/18 11:54:41;;;;;;;8.97;8.30;;;29.20;62.60;;;;;;5047133;28;20500;-72
2022/08/18 11:57:53;;;;;;;9.37;8.67;;;29.30;63.60;;;;;;5050296;28;20584;-73
2022/08/18 12:00:54;;;;;;;7.97;7.37;;;29.20;62.70;;;;;;5043272;28;20447;-74
2022/08/18 12:03:31;;;;;;;8.17;7.60;;;29.00;63.20;;;;;;5049019;28;21076;-72
2022/08/18 12:06:18;;;;;;;8.87;8.27;;;28.90;63.80;;;;;;5047870;28;20456;-72
2022/08/18 12:08:55;;;;;;;9.47;8.67;;;28.90;64.50;;;;;;5051297;28;20484;-72
2022/08/18 12:11:30;;;;;;;7.20;6.60;;;28.90;64.10;;;;;;5047538;28;21043;-72
2022/08/18 12:14:10;;;;;;;7.93;7.20;;;28.80;63.80;;;;;;5045711;28;20490;-71
2022/08/18 12:16:58;;;;;;;7.80;7.30;;;28.60;64.00;;;;;;5044259;28;20517;-71
2022/08/18 12:19:30;;;;;;;7.53;7.03;;;28.50;64.00;;;;;;5045942;28;20834;-71
2022/08/18 12:22:12;;;;;;;8.63;8.07;;;28.30;64.40;;;;;;5039490;28;20491;-74
2022/08/18 12:24:40;;;;;;;9.20;8.53;;;28.30;64.60;;;;;;5046015;28;20516;-73
2022/08/18 12:27:12;;;;;;;8.53;7.83;;;28.40;64.40;;;;;;5040240;28;20446;-73
2022/08/18 12:29:49;;;;;;;8.93;8.00;;;28.50;64.30;;;;;;5045528;28;20495;-72
2022/08/18 12:32:18;;;;;;;9.40;8.70;;;28.70;64.10;;;;;;5045424;28;20450;-73
2022/08/18 12:35:10;;;;;;;9.03;8.30;;;29.10;63.60;;;;;;5050366;28;20450;-71
2022/08/18 12:37:41;;;;;;;9.20;8.60;;;29.40;62.80;;;;;;5046610;28;20441;-72
2022/08/18 12:40:26;;;;;;;8.20;7.60;;;29.40;62.50;;;;;;5045841;28;20456;-72
2022/08/18 12:42:56;;;;;;;7.67;7.17;;;29.50;62.60;;;;;;5047430;28;20455;-74
2022/08/18 12:45:25;;;;;;;9.17;8.47;;;29.40;62.50;;;;;;5049649;28;20474;-76
2022/08/18 12:47:54;;;;;;;8.97;8.13;;;29.40;62.40;;;;;;5047772;28;20473;-74
2022/08/18 12:50:23;;;;;;;8.73;8.13;;;29.40;62.30;;;;;;5050860;28;20462;-73
2022/08/18 12:53:00;;;;;;;8.27;7.60;;;29.30;62.70;;;;;;5069235;28;20451;-74
2022/08/18 12:55:33;;;;;;;8.43;7.80;;;29.40;63.00;;;;;;5047706;28;20465;-74
2022/08/18 12:58:04;;;;;;;10.47;9.73;;;29.50;62.70;;;;;;5046129;28;20526;-72
2022/08/18 13:00:32;;;;;;;8.33;7.83;;;29.70;62.50;;;;;;5050133;28;20540;-72
2022/08/18 13:03:03;;;;;;;9.47;8.73;;;29.80;62.40;;;;;;5050293;28;20466;-73
2022/08/18 13:05:31;;;;;;;9.30;8.70;;;29.90;62.10;;;;;;5049835;28;20478;-72
2022/08/18 13:08:04;;;;;;;8.17;7.63;;;30.00;62.00;;;;;;5045616;28;20450;-73
2022/08/18 13:10:32;;;;;;;8.70;8.10;;;30.00;61.70;;;;;;5042327;28;20454;-73
2022/08/18 13:13:15;;;;;;;8.37;7.67;;;30.00;61.10;;;;;;5047527;28;20453;-73
2022/08/18 13:15:44;;;;;;;10.23;9.50;;;29.90;61.40;;;;;;5047518;28;20977;-74
2022/08/18 13:18:25;;;;;;;9.23;8.53;;;29.80;61.70;;;;;;5044351;28;20458;-72
2022/08/18 13:20:56;;;;;;;9.53;8.63;;;29.70;62.20;;;;;;5043581;28;20513;-73
2022/08/18 13:23:26;;;;;;;10.57;9.77;;;29.70;62.30;;;;;;5051944;28;20453;-73
2022/08/18 13:25:54;;;;;;;10.33;9.50;;;29.60;62.10;;;;;;5038840;28;20453;-73
2022/08/18 13:28:32;;;;;;;9.07;8.40;;;29.50;62.80;;;;;;5042499;28;20981;-78
2022/08/18 13:31:17;;;;;;;9.50;8.70;;;29.50;63.10;;;;;;5043941;28;20454;-73
2022/08/18 13:33:50;;;;;;;9.87;9.20;;;29.60;63.00;;;;;;5050390;28;20446;-75
2022/08/18 13:36:43;;;;;;;9.03;8.43;;;29.50;62.40;;;;;;5045536;28;20443;-74
2022/08/18 13:39:14;;;;;;;9.73;9.03;;;29.50;62.60;;;;;;5054775;28;20449;-74
2022/08/18 13:41:42;;;;;;;9.43;8.83;;;29.50;62.90;;;;;;5058294;28;20495;-72
2022/08/18 13:44:17;;;;;;;9.07;8.50;;;29.60;62.80;;;;;;5042744;28;20462;-75